Time;durP1;ratioP1;P1;durP2;ratioP2;P2;SDS_P1;SDS_P2;PMS_P1;PMS_P2;Temp;Humidity;BMP_temperature;BMP_pressure;BME280_temperature;BME280_humidity;BME280_pressure;Samples;Min_cycle;Max_cycle;Signal;HPM_P1;HPM_P2
2022/05/27 00:01:14;;;;;;;8.32;3.92;;;;;;;14.50;77.10;101866.06;5028922;28;20033;-91
2022/05/27 00:03:40;;;;;;;9.67;3.50;;;;;;;14.57;77.19;101876.97;5032620;28;20108;-91
2022/05/27 00:06:06;;;;;;;8.27;3.73;;;;;;;14.53;77.73;101865.63;5030331;28;20488;-90
2022/05/27 00:08:31;;;;;;;11.90;4.03;;;;;;;14.60;77.16;101869.19;5030774;28;20079;-90
2022/05/27 00:10:59;;;;;;;7.90;3.37;;;;;;;14.49;77.87;101861.66;5032629;28;20021;-91
2022/05/27 00:13:25;;;;;;;8.77;3.70;;;;;;;14.49;77.40;101861.66;5012753;28;20041;-90
2022/05/27 00:15:50;;;;;;;8.60;3.87;;;;;;;14.50;77.94;101864.19;5030053;28;20433;-90
2022/05/27 00:18:16;;;;;;;8.07;3.37;;;;;;;14.52;78.00;101861.22;5012435;28;20013;-91
2022/05/27 00:20:41;;;;;;;12.17;4.13;;;;;;;14.52;77.86;101848.44;5030878;28;20032;-89
2022/05/27 00:23:07;;;;;;;10.43;3.70;;;;;;;14.47;78.32;101859.16;5030479;28;20033;-91
2022/05/27 00:25:33;;;;;;;9.77;3.90;;;;;;;14.50;77.97;101852.44;5030965;28;20026;-90
2022/05/27 00:27:59;;;;;;;7.83;3.40;;;;;;;14.46;78.13;101848.47;5031020;28;20029;-90
2022/05/27 00:30:25;;;;;;;10.97;3.97;;;;;;;14.53;77.96;101852.84;5032552;28;20041;-90
2022/05/27 00:32:51;;;;;;;9.47;3.97;;;;;;;14.48;78.22;101851.81;5026428;28;20047;-91
2022/05/27 00:35:17;;;;;;;10.10;3.50;;;;;;;14.45;78.29;101858.50;5026103;28;20573;-90
2022/05/27 00:37:42;;;;;;;9.77;4.10;;;;;;;14.50;78.46;101866.91;5031011;28;20104;-91
2022/05/27 00:40:10;;;;;;;9.97;4.10;;;;;;;14.45;78.49;101855.78;5029521;28;20034;-89
2022/05/27 00:42:42;;;;;;;11.40;3.90;;;;;;;14.46;78.82;101856.66;5013482;28;20041;-90
2022/05/27 00:45:20;;;;;;;12.67;4.23;;;;;;;14.48;78.83;101849.94;5029178;28;20060;-91
2022/05/27 00:47:48;;;;;;;11.97;4.13;;;;;;;14.46;79.27;101856.66;5029489;28;20032;-90
2022/05/27 00:50:17;;;;;;;10.83;4.20;;;;;;;14.46;78.99;101852.00;5032881;28;20037;-91
2022/05/27 00:52:45;;;;;;;7.97;4.00;;;;;;;14.50;78.65;101844.25;5032248;28;20025;-91
2022/05/27 00:55:17;;;;;;;11.67;4.23;;;;;;;14.44;79.56;101847.81;5029074;28;20017;-91
2022/05/27 00:57:53;;;;;;;12.70;4.00;;;;;;;14.38;80.65;101844.06;5030266;28;20037;-91
2022/05/27 01:00:24;;;;;;;13.23;4.63;;;;;;;14.36;81.04;101843.47;5030044;28;20115;-91
2022/05/27 01:02:50;;;;;;;11.00;5.03;;;;;;;14.35;81.22;101845.31;5029074;28;20092;-90
2022/05/27 01:05:19;;;;;;;12.60;4.97;;;;;;;14.29;82.44;101840.75;5029016;28;20120;-90
2022/05/27 01:07:45;;;;;;;11.40;4.90;;;;;;;14.30;82.57;101849.75;5027754;28;20510;-91
2022/05/27 01:10:15;;;;;;;13.73;5.10;;;;;;;14.27;83.00;101844.72;5029872;28;20061;-90
2022/05/27 01:12:54;;;;;;;11.83;5.20;;;;;;;14.21;83.39;101842.84;5028037;28;20021;-89
2022/05/27 01:15:38;;;;;;;16.43;5.63;;;;;;;14.14;83.94;101840.13;5043278;28;20036;-91
2022/05/27 01:21:29;;;;;;;15.03;5.90;;;;;;;14.03;85.89;101844.31;5030384;28;20041;-91
2022/05/27 01:24:22;;;;;;;16.67;6.47;;;;;;;13.92;86.54;101837.59;5026924;28;20060;-91
2022/05/27 01:27:05;;;;;;;13.77;6.27;;;;;;;13.81;87.54;101838.25;5027808;28;20033;-90
2022/05/27 01:30:08;;;;;;;15.13;6.63;;;;;;;13.77;88.54;101845.16;5028750;28;20036;-90
2022/05/27 01:33:02;;;;;;;14.73;6.73;;;;;;;13.72;89.13;101837.63;5029121;28;20492;-90
2022/05/27 01:35:44;;;;;;;14.10;6.60;;;;;;;13.64;89.67;101832.34;5028961;28;20021;-90
2022/05/27 01:38:13;;;;;;;15.93;7.40;;;;;;;13.62;90.38;101834.47;5025438;28;20067;-90
2022/05/27 01:41:01;;;;;;;15.77;7.37;;;;;;;13.52;91.04;101832.16;5030453;28;20372;-90
2022/05/27 01:43:35;;;;;;;16.20;8.00;;;;;;;13.47;91.73;101837.38;5027406;28;20038;-90
2022/05/27 01:46:13;;;;;;;17.00;7.85;;;;;;;13.41;92.29;101835.47;5029164;28;20045;-90
2022/05/27 01:48:51;;;;;;;14.10;7.50;;;;;;;13.40;92.19;101828.38;5029491;28;20033;-90
2022/05/27 01:51:48;;;;;;;18.83;7.63;;;;;;;13.39;92.92;101829.41;5043414;28;20032;-90
2022/05/27 01:54:17;;;;;;;15.83;7.50;;;;;;;13.34;93.18;101830.84;5029502;28;20038;-90
2022/05/27 01:56:49;;;;;;;18.83;8.30;;;;;;;13.29;94.06;101836.06;5031985;28;20035;-89
2022/05/27 01:59:25;;;;;;;19.60;8.40;;;;;;;13.29;94.28;101835.22;5029309;28;20056;-90
2022/05/27 02:02:06;;;;;;;21.40;8.90;;;;;;;13.23;94.91;101826.00;5027435;28;20029;-90
2022/05/27 02:04:43;;;;;;;17.43;8.73;;;;;;;13.20;nan;101840.00;5026377;28;20021;-90
2022/05/27 02:07:14;;;;;;;21.97;9.97;;;;;;;13.14;98.81;101879.75;5027308;28;20017;-90
2022/05/27 02:09:46;;;;;;;16.93;7.87;;;;;;;13.02;97.97;101875.13;5029109;28;20021;-90
2022/05/27 02:12:31;;;;;;;8.30;4.13;;;;;;;12.84;95.83;101857.47;5028285;28;20440;-93
2022/05/27 02:15:01;;;;;;;8.37;3.23;;;;;;;12.69;93.96;101863.03;5030143;28;20018;-91
2022/05/27 02:17:36;;;;;;;7.27;3.60;;;;;;;12.57;95.20;101862.75;5029070;28;20037;-91
2022/05/27 02:20:08;;;;;;;9.73;3.93;;;;;;;12.55;95.94;101872.13;5027323;28;20024;-90
2022/05/27 02:22:46;;;;;;;8.00;3.70;;;;;;;12.49;96.88;101871.88;5029443;28;20037;-90
2022/05/27 02:25:21;;;;;;;8.70;3.60;;;;;;;12.41;97.69;101868.50;5027259;28;20028;-91
2022/05/27 02:27:55;;;;;;;10.57;3.80;;;;;;;12.33;98.07;101864.91;5031651;28;20025;-94
2022/05/27 02:30:29;;;;;;;6.38;3.40;;;;;;;12.15;98.33;101842.81;5033249;28;20052;-94
2022/05/27 02:35:53;;;;;;;7.07;3.90;;;;;;;12.19;98.81;101857.69;5034247;28;20032;-94
2022/05/27 02:38:19;;;;;;;6.67;3.70;;;;;;;12.09;98.84;101830.03;5037382;28;20017;-93
2022/05/27 02:41:21;;;;;;;7.20;3.43;;;;;;;11.98;98.76;101815.97;5035149;28;20039;-92
2022/05/27 02:43:55;;;;;;;6.93;3.50;;;;;;;12.13;98.34;101840.31;5028545;28;21921;-94
2022/05/27 02:46:39;;;;;;;;;;;;;;;12.20;96.42;101837.66;5047324;28;20547;-93
2022/05/27 02:49:08;;;;;;;7.50;3.20;;;;;;;12.16;96.77;101826.31;5034944;28;19909;-93
2022/05/27 02:51:59;;;;;;;7.33;3.77;;;;;;;12.12;98.35;101835.91;5033888;28;20036;-93
2022/05/27 02:54:34;;;;;;;7.43;3.97;;;;;;;12.15;97.99;101840.09;5033829;28;20075;-92
2022/05/27 02:57:23;;;;;;;8.03;4.00;;;;;;;12.12;98.50;101829.66;5036835;28;20045;-93
2022/05/27 02:59:51;;;;;;;7.77;4.10;;;;;;;12.15;98.14;101831.97;5038386;28;20029;-93
2022/05/27 03:02:17;;;;;;;10.70;3.60;;;;;;;12.19;98.07;101846.81;5034998;28;20036;-92
2022/05/27 03:04:50;;;;;;;6.73;3.60;;;;;;;12.09;98.23;101820.00;5031976;28;20017;-91
2022/05/27 03:07:19;;;;;;;10.37;4.07;;;;;;;12.12;98.01;101824.22;5032808;28;20028;-92
2022/05/27 03:10:06;;;;;;;9.33;3.90;;;;;;;12.10;97.87;101816.25;5031021;28;20029;-92
2022/05/27 03:13:01;;;;;;;12.30;3.90;;;;;;;12.09;97.37;101832.72;5032071;28;20056;-90
2022/05/27 03:15:52;;;;;;;9.03;4.00;;;;;;;12.17;97.36;101835.31;5017742;28;20037;-92
2022/05/27 03:18:35;;;;;;;10.23;4.17;;;;;;;12.15;98.07;101834.69;5032640;28;20036;-92
2022/05/27 03:21:26;;;;;;;10.90;4.70;;;;;;;12.18;98.80;101842.41;5032023;28;20660;-92
2022/05/27 03:24:13;;;;;;;11.47;4.23;;;;;;;12.11;98.58;101814.38;5034171;28;20456;-93
2022/05/27 03:27:03;;;;;;;9.70;4.63;;;;;;;12.12;98.67;101813.34;5032136;28;20028;-92
2022/05/27 03:29:36;;;;;;;9.07;4.00;;;;;;;12.12;98.70;101807.91;5033278;28;20116;-93
2022/05/27 03:32:17;;;;;;;10.93;4.37;;;;;;;12.10;99.70;101799.09;5034600;28;20026;-92
2022/05/27 03:34:50;;;;;;;11.23;4.60;;;;;;;12.14;100.00;101800.38;5032944;28;20577;-93
2022/05/27 03:37:40;;;;;;;8.75;4.47;;;;;;;12.19;100.00;101814.22;5033383;28;20482;-93
2022/05/27 03:40:23;;;;;;;8.03;4.40;;;;;;;12.30;100.00;101821.81;5035240;28;20037;-93
2022/05/27 03:42:50;;;;;;;11.87;4.77;;;;;;;12.30;100.00;101821.81;5034542;28;20037;-93
2022/05/27 03:45:19;;;;;;;8.43;5.00;;;;;;;12.18;100.00;101807.09;5025453;28;20099;-93
2022/05/27 03:47:45;;;;;;;10.67;4.50;;;;;;;12.33;100.00;101818.72;5034921;28;20056;-93
2022/05/27 03:50:15;;;;;;;9.57;5.07;;;;;;;12.31;100.00;101822.66;5040838;28;20037;-93
2022/05/27 03:52:44;;;;;;;9.33;4.67;;;;;;;12.31;100.00;101820.78;5029209;28;20033;-91
2022/05/27 03:55:13;;;;;;;15.60;4.50;;;;;;;12.23;100.00;101803.81;5031241;28;20033;-93
2022/05/27 03:57:39;;;;;;;8.73;5.07;;;;;;;12.30;100.00;101816.38;5032239;28;20029;-93
2022/05/27 04:00:06;;;;;;;9.60;5.10;;;;;;;12.42;100.00;101826.72;5030129;28;20035;-92
2022/05/27 04:02:31;;;;;;;7.87;4.60;;;;;;;12.36;100.00;101811.19;5031341;28;20032;-92
2022/05/27 04:04:57;;;;;;;9.60;5.00;;;;;;;12.43;100.00;101826.50;5030741;28;20029;-93
2022/05/27 04:07:22;;;;;;;10.27;4.83;;;;;;;12.43;100.00;101818.34;5029946;28;20038;-93
2022/05/27 04:09:48;;;;;;;8.23;4.53;;;;;;;12.38;100.00;101807.22;5031084;28;20041;-93
2022/05/27 04:12:13;;;;;;;10.83;4.90;;;;;;;12.41;100.00;101825.84;5033000;28;20021;-92
2022/05/27 04:14:39;;;;;;;9.50;4.77;;;;;;;12.54;100.00;101840.56;5030509;28;20029;-92
2022/05/27 04:19:48;;;;;;;11.98;5.50;;;;;;;12.56;100.00;101835.78;5030067;28;20119;-92
2022/05/27 04:22:14;;;;;;;12.63;5.30;;;;;;;12.46;100.00;101819.81;5029401;28;20525;-92
2022/05/27 04:24:39;;;;;;;12.97;5.23;;;;;;;12.49;100.00;101816.69;5013443;28;20021;-92
2022/05/27 04:27:10;;;;;;;9.17;5.03;;;;;;;12.58;100.00;101842.69;5033883;28;20524;-92
2022/05/27 04:29:47;;;;;;;9.63;5.30;;;;;;;12.61;100.00;101839.56;5028658;28;20033;-91
2022/05/27 04:32:13;;;;;;;10.70;5.70;;;;;;;12.64;100.00;101847.31;5029918;28;20033;-92
2022/05/27 04:34:40;;;;;;;12.47;5.90;;;;;;;12.72;100.00;101851.75;5029228;28;20026;-92
2022/05/27 04:37:07;;;;;;;10.17;5.73;;;;;;;12.75;100.00;101845.06;5030328;28;20013;-92
2022/05/27 04:39:33;;;;;;;8.83;5.80;;;;;;;12.77;100.00;101848.41;5029041;28;20035;-92
2022/05/27 04:41:58;;;;;;;12.53;6.50;;;;;;;12.79;100.00;101849.06;5030469;28;20029;-92
2022/05/27 04:44:24;;;;;;;13.87;6.57;;;;;;;12.78;100.00;101839.22;5032074;28;20076;-92
2022/05/27 04:46:49;;;;;;;14.77;7.00;;;;;;;12.87;100.00;101845.34;5029544;28;20022;-92
2022/05/27 04:52:17;;;;;;;17.47;7.80;;;;;;;12.95;100.00;101837.81;5033428;28;20033;-92
2022/05/27 04:54:42;;;;;;;13.33;7.67;;;;;;;12.99;100.00;101841.81;5029390;28;20131;-92
2022/05/27 04:57:13;;;;;;;15.70;8.20;;;;;;;13.11;100.00;101860.25;5030397;28;20110;-92
2022/05/27 04:59:40;;;;;;;14.83;7.90;;;;;;;13.12;100.00;101851.06;5032256;28;20026;-93
2022/05/27 05:02:06;;;;;;;17.63;8.57;;;;;;;13.21;100.00;101860.72;5030815;28;20490;-92
2022/05/27 05:04:31;;;;;;;19.33;8.90;;;;;;;13.14;100.00;101832.66;5032813;28;20020;-92
2022/05/27 05:07:04;;;;;;;21.33;9.57;;;;;;;13.34;100.00;101860.78;5031882;28;20029;-92
2022/05/27 05:09:30;;;;;;;20.00;9.70;;;;;;;13.38;100.00;101854.94;5029003;28;20107;-92
2022/05/27 05:11:57;;;;;;;20.20;8.70;;;;;;;13.41;100.00;101857.25;5031265;28;20049;-91
2022/05/27 05:14:22;;;;;;;19.00;8.27;;;;;;;13.45;100.00;101855.78;5029351;28;20040;-93
2022/05/27 05:16:47;;;;;;;20.20;8.27;;;;;;;13.51;100.00;101865.88;5000661;28;20033;-92
2022/05/27 05:19:13;;;;;;;17.27;8.37;;;;;;;13.48;100.00;101849.94;5028973;28;21878;-92
2022/05/27 05:21:38;;;;;;;18.53;7.87;;;;;;;13.56;100.00;101857.91;5030741;28;21887;-92
2022/05/27 05:24:04;;;;;;;17.20;7.53;;;;;;;13.60;100.00;101863.78;5028821;28;20118;-92
2022/05/27 05:26:29;;;;;;;17.50;8.30;;;;;;;13.62;100.00;101867.16;5031571;28;20030;-92
2022/05/27 05:28:55;;;;;;;19.33;8.03;;;;;;;13.63;100.00;101866.94;5030051;28;20111;-91
2022/05/27 05:31:20;;;;;;;21.87;8.67;;;;;;;13.70;100.00;101877.00;5014853;28;20036;-92
2022/05/27 05:33:46;;;;;;;21.30;8.70;;;;;;;13.78;100.00;101883.09;5016169;28;20035;-91
2022/05/27 05:36:11;;;;;;;21.53;8.87;;;;;;;13.81;100.00;101887.28;5029882;28;20394;-91
2022/05/27 05:38:37;;;;;;;18.53;8.40;;;;;;;13.74;99.25;101881.81;5013370;28;20044;-92
2022/05/27 05:41:03;;;;;;;18.63;8.10;;;;;;;13.74;98.94;101881.00;4999194;28;20029;-91
2022/05/27 05:43:28;;;;;;;19.33;8.40;;;;;;;13.77;99.44;101883.28;5031233;28;20026;-91
2022/05/27 05:45:54;;;;;;;21.67;8.00;;;;;;;13.78;99.39;101884.97;5030623;28;20482;-91
2022/05/27 05:48:19;;;;;;;16.13;7.43;;;;;;;13.77;97.99;101881.41;5012284;28;20032;-92
2022/05/27 05:50:45;;;;;;;16.73;6.80;;;;;;;13.83;97.72;101901.50;5029415;28;20037;-92
2022/05/27 05:53:10;;;;;;;19.23;6.40;;;;;;;13.78;96.60;101887.69;5029270;28;20034;-91
2022/05/27 05:55:36;;;;;;;15.57;5.63;;;;;;;13.76;93.64;101887.06;5030638;28;20112;-91
2022/05/27 05:58:02;;;;;;;16.83;5.60;;;;;;;13.74;94.14;101889.16;4999955;28;20033;-90
2022/05/27 06:00:28;;;;;;;17.80;5.80;;;;;;;13.84;94.10;101903.19;5031794;28;20042;-91
2022/05/27 06:02:55;;;;;;;15.00;4.70;;;;;;;13.87;91.27;101912.84;5032981;28;20033;-91
2022/05/27 06:05:21;;;;;;;12.77;4.37;;;;;;;13.76;91.89;101900.69;5035288;28;20026;-91
2022/05/27 06:07:47;;;;;;;16.67;4.97;;;;;;;13.76;91.96;101903.41;5017441;28;20466;-90
2022/05/27 06:10:15;;;;;;;12.70;4.40;;;;;;;13.81;89.81;101919.97;5016402;28;20029;-90
2022/05/27 06:12:40;;;;;;;14.27;4.27;;;;;;;13.78;89.75;101904.88;5033141;28;20473;-91
2022/05/27 06:15:09;;;;;;;11.70;4.30;;;;;;;13.87;89.32;101907.41;5032443;28;20021;-91
2022/05/27 06:17:35;;;;;;;16.33;4.37;;;;;;;13.92;90.37;101905.72;5036112;28;20025;-91
2022/05/27 06:20:01;;;;;;;16.17;4.27;;;;;;;13.89;87.01;101911.59;5042937;28;20087;-90
2022/05/27 06:22:26;;;;;;;10.77;3.87;;;;;;;13.91;88.21;101912.25;5033184;28;20045;-91
2022/05/27 06:24:52;;;;;;;13.30;3.50;;;;;;;13.90;85.82;101909.69;5034096;28;20018;-91
2022/05/27 06:27:18;;;;;;;14.23;4.07;;;;;;;14.01;87.01;101918.09;5032437;28;20485;-91
2022/05/27 06:35:11;;;;;;;8.80;3.17;;;;;;;14.34;87.14;101919.97;5035572;28;20060;-91
2022/05/27 06:37:37;;;;;;;12.17;3.80;;;;;;;14.29;82.06;101913.50;5031691;28;20478;-92
2022/05/27 06:40:04;;;;;;;11.10;3.60;;;;;;;14.30;84.22;101912.44;5037207;28;20033;-92
2022/05/27 06:42:29;;;;;;;10.33;3.23;;;;;;;14.43;83.38;101911.59;5035608;28;20108;-94
2022/05/27 06:44:55;;;;;;;12.47;3.33;;;;;;;14.50;82.93;101926.06;5032508;28;20160;-93
2022/05/27 06:47:20;;;;;;;12.63;3.40;;;;;;;14.52;80.78;101921.22;5032360;28;20032;-90
2022/05/27 06:49:46;;;;;;;11.83;3.30;;;;;;;14.64;81.90;101925.00;5014298;28;20026;-90
2022/05/27 06:52:13;;;;;;;8.97;3.40;;;;;;;14.62;79.22;101909.88;5030383;28;20112;-90
2022/05/27 06:54:38;;;;;;;9.83;3.60;;;;;;;14.59;78.44;101921.22;5031117;28;20104;-90
2022/05/27 06:57:05;;;;;;;9.67;3.40;;;;;;;14.61;82.18;101911.78;5023466;28;20117;-90
2022/05/27 06:59:32;;;;;;;10.40;3.10;;;;;;;14.68;77.37;101923.53;5014821;28;20578;-91
2022/05/27 07:01:57;;;;;;;14.73;3.40;;;;;;;14.73;78.60;101917.47;5017519;28;20488;-91
2022/05/27 07:04:23;;;;;;;10.17;3.33;;;;;;;14.79;77.41;101926.66;5025855;28;20044;-90
2022/05/27 07:06:49;;;;;;;8.37;3.20;;;;;;;14.79;76.33;101940.31;5009809;28;20500;-90
2022/05/27 07:09:20;;;;;;;10.73;3.33;;;;;;;14.87;78.96;101922.88;5024992;28;20040;-91
2022/05/27 07:11:49;;;;;;;10.67;2.93;;;;;;;14.87;74.00;101934.63;5044458;28;20512;-91
2022/05/27 07:14:15;;;;;;;9.40;3.30;;;;;;;15.05;77.64;101946.75;5034486;28;20495;-91
2022/05/27 07:16:41;;;;;;;12.90;3.60;;;;;;;15.08;76.75;101935.41;5031980;28;20030;-91
2022/05/27 07:19:07;;;;;;;10.20;2.80;;;;;;;15.19;75.22;101934.75;5029392;28;20658;-91
2022/05/27 07:21:41;;;;;;;8.77;3.27;;;;;;;15.28;74.97;101943.50;5017593;28;20151;-92
2022/05/27 07:24:09;;;;;;;10.95;2.85;;;;;;;15.14;72.50;101924.44;5027842;28;20430;-93
2022/05/27 07:26:36;;;;;;;12.80;3.13;;;;;;;15.15;72.41;101941.66;5028005;28;20048;-92
2022/05/27 07:29:01;;;;;;;9.53;3.13;;;;;;;15.11;73.01;101940.41;5028352;28;21435;-93
2022/05/27 07:31:27;;;;;;;13.50;3.53;;;;;;;15.09;73.38;101940.63;5025603;28;20041;-93
2022/05/27 07:33:52;;;;;;;7.73;2.80;;;;;;;15.18;73.80;101943.97;5028290;28;20021;-93
2022/05/27 07:36:18;;;;;;;12.27;3.40;;;;;;;15.16;72.44;101938.75;5028779;28;20053;-93
2022/05/27 07:38:43;;;;;;;11.60;2.93;;;;;;;15.26;72.53;101945.59;5007323;28;20036;-91
2022/05/27 07:41:09;;;;;;;9.70;2.80;;;;;;;15.41;72.40;101948.06;5009458;28;20029;-92
2022/05/27 07:43:34;;;;;;;9.97;3.23;;;;;;;15.41;71.87;101948.06;5007237;28;20096;-91
2022/05/27 07:46:00;;;;;;;13.53;3.97;;;;;;;15.45;71.18;101952.03;5024559;28;20037;-91
2022/05/27 07:48:26;;;;;;;9.83;3.10;;;;;;;15.60;74.69;101949.88;5023458;28;20484;-89
2022/05/27 07:50:52;;;;;;;10.77;2.90;;;;;;;15.73;73.04;101964.53;5022313;28;20039;-90
2022/05/27 07:53:19;;;;;;;11.73;3.27;;;;;;;15.72;72.72;101962.84;5006011;28;20150;-90
2022/05/27 07:55:44;;;;;;;10.50;2.93;;;;;;;15.63;70.62;101957.63;5022939;28;21529;-90
2022/05/27 07:58:10;;;;;;;12.93;3.40;;;;;;;15.54;72.04;101967.13;5022486;28;20124;-91
2022/05/27 08:00:37;;;;;;;11.70;3.00;;;;;;;15.29;70.10;101981.53;5027692;28;20029;-90
2022/05/27 08:03:04;;;;;;;11.10;2.70;;;;;;;15.14;70.45;101972.75;5031464;28;20075;-90
2022/05/27 08:05:30;;;;;;;9.77;3.00;;;;;;;15.16;70.69;101976.97;5010642;28;22029;-90
2022/05/27 08:07:57;;;;;;;8.53;2.80;;;;;;;15.08;71.23;101973.59;5020057;28;20029;-89
2022/05/27 08:10:27;;;;;;;13.70;3.20;;;;;;;15.00;70.67;101975.53;5023344;28;20033;-89
2022/05/27 08:12:52;;;;;;;13.50;3.33;;;;;;;15.07;70.26;101963.75;5023405;28;20044;-89
2022/05/27 08:15:18;;;;;;;11.67;3.20;;;;;;;15.17;68.91;101973.16;5010414;28;20028;-89
2022/05/27 08:17:43;;;;;;;9.73;3.37;;;;;;;15.31;67.94;101982.16;5021856;28;20120;-89
2022/05/27 08:20:12;;;;;;;15.53;3.60;;;;;;;15.64;70.96;101974.84;5022345;28;20044;-88
2022/05/27 08:22:38;;;;;;;11.17;3.17;;;;;;;15.57;64.82;101968.59;5027884;28;20056;-90
2022/05/27 08:25:04;;;;;;;10.80;3.50;;;;;;;15.81;67.05;101989.72;5030956;28;20414;-90
2022/05/27 08:27:30;;;;;;;15.67;3.60;;;;;;;16.11;68.79;101983.63;5037470;28;20025;-90
2022/05/27 08:29:55;;;;;;;11.17;3.10;;;;;;;16.25;64.51;101987.13;5029272;28;20045;-90
2022/05/27 08:32:20;;;;;;;12.80;3.40;;;;;;;16.19;64.80;101975.16;5029352;28;20040;-89
2022/05/27 08:40:53;;;;;;;14.00;3.40;;;;;;;16.09;65.87;101995.84;5029067;28;20060;-90
2022/05/27 08:43:33;;;;;;;14.00;3.27;;;;;;;15.87;64.74;102001.69;5008583;28;20084;-88
2022/05/27 08:46:19;;;;;;;12.67;2.90;;;;;;;15.78;65.83;102000.22;5032717;28;20460;-89
2022/05/27 08:48:49;;;;;;;11.97;3.30;;;;;;;16.01;68.53;101986.88;5027049;28;20116;-90
2022/05/27 08:51:45;;;;;;;10.67;3.10;;;;;;;16.27;62.42;101989.63;5029249;28;20023;-91
2022/05/27 08:54:15;;;;;;;10.60;3.00;;;;;;;16.52;62.38;101989.63;5036868;28;20028;-90
2022/05/27 08:59:40;;;;;;;13.00;3.33;;;;;;;17.00;61.28;102002.69;5028767;28;20060;-91
2022/05/27 09:02:35;;;;;;;11.70;3.33;;;;;;;17.05;63.46;101988.31;5044913;28;20037;-90
2022/05/27 09:05:15;;;;;;;14.35;2.92;;;;;;;16.82;58.13;101999.88;5028954;28;20347;-89
2022/05/27 09:07:45;;;;;;;11.30;2.87;;;;;;;16.48;57.18;101999.34;5045004;28;20030;-91
2022/05/27 09:10:20;;;;;;;10.27;2.90;;;;;;;16.25;59.60;102002.69;5028647;28;20033;-91
2022/05/27 09:12:58;;;;;;;10.83;2.97;;;;;;;16.37;60.48;102000.91;5029281;28;20482;-91
2022/05/27 09:15:54;;;;;;;12.00;3.23;;;;;;;16.64;57.20;102004.25;5028659;28;20032;-90
2022/05/27 09:18:54;;;;;;;11.10;3.33;;;;;;;17.04;58.19;102003.91;5028482;28;20477;-91
2022/05/27 09:21:19;;;;;;;14.70;3.50;;;;;;;17.12;56.91;102010.13;5029518;28;20029;-91
2022/05/27 09:24:00;;;;;;;10.00;2.90;;;;;;;17.34;58.50;102010.53;5029313;28;20025;-90
2022/05/27 09:26:43;;;;;;;11.30;3.40;;;;;;;17.12;56.38;102012.88;5027569;28;20033;-91
2022/05/27 09:29:11;;;;;;;11.52;3.10;;;;;;;17.00;57.47;102010.06;5029616;28;20057;-90
2022/05/27 09:32:09;;;;;;;11.60;3.30;;;;;;;16.98;55.22;102021.22;5029443;28;20025;-91
2022/05/27 09:34:40;;;;;;;75.67;6.37;;;;;;;16.88;55.94;102020.88;5028653;28;20067;-90
2022/05/27 09:37:08;;;;;;;11.50;3.00;;;;;;;17.11;54.40;102035.84;5034648;28;20041;-90
2022/05/27 09:39:34;;;;;;;11.10;2.80;;;;;;;17.21;53.58;102025.22;5040175;28;20188;-89
2022/05/27 09:42:37;;;;;;;11.75;3.42;;;;;;;17.60;56.69;102023.06;5016283;28;20048;-89
2022/05/27 09:45:03;;;;;;;14.88;3.00;;;;;;;17.58;54.02;102027.09;5032719;28;20045;-90
2022/05/27 10:20:38;;;;;;;11.53;2.93;;;;;;;17.64;50.14;102029.75;5132168;27;20931;-85
2022/05/27 10:23:09;;;;;;;11.17;3.10;;;;;;;17.69;51.25;102042.75;5141250;27;20022;-84
2022/05/27 10:25:38;;;;;;;11.07;3.47;;;;;;;17.50;45.65;102029.09;5118325;28;20115;-84
2022/05/27 10:28:06;;;;;;;14.27;3.60;;;;;;;17.80;49.70;102022.81;5092842;27;20049;-84
2022/05/27 10:30:53;;;;;;;14.37;3.50;;;;;;;18.01;53.18;102035.19;5110886;27;20027;-83
2022/05/27 10:33:22;;;;;;;11.80;3.00;;;;;;;17.57;49.14;102050.94;5111794;28;20394;-84
2022/05/27 10:35:51;;;;;;;9.67;2.97;;;;;;;17.58;50.86;102038.06;5116553;27;20521;-83
2022/05/27 10:38:25;;;;;;;7.23;3.03;;;;;;;17.54;49.24;102040.41;5092478;28;20068;-84
2022/05/27 10:41:07;;;;;;;9.63;2.90;;;;;;;17.50;51.73;102029.09;5109579;28;20221;-85
2022/05/27 10:44:05;;;;;;;9.60;3.20;;;;;;;17.55;49.60;102047.59;5130607;27;20111;-85
2022/05/27 10:46:35;;;;;;;12.67;3.70;;;;;;;17.68;53.21;102030.97;5139056;27;20468;-85
2022/05/27 10:49:13;;;;;;;10.70;3.13;;;;;;;17.76;50.60;102035.31;5103332;27;20023;-83
2022/05/27 10:51:54;;;;;;;11.33;3.20;;;;;;;17.43;48.92;102039.28;5133507;27;20528;-84
2022/05/27 10:54:22;;;;;;;10.40;3.20;;;;;;;17.42;49.65;102047.72;5109097;27;20039;-86
2022/05/27 11:02:59;;;;;;;;;;;;;;;17.27;51.92;102050.84;5117618;27;20066;-84
2022/05/27 11:05:48;;;;;;;11.73;3.27;;;;;;;17.31;52.44;102047.44;5107348;27;19930;-86
2022/05/27 11:08:22;;;;;;;8.57;3.20;;;;;;;17.66;50.56;102044.06;5088342;27;20415;-85
2022/05/27 11:10:48;;;;;;;;;;;;;;;17.87;47.92;102034.53;5105482;27;20024;-88
2022/05/27 11:16:18;;;;;;;7.63;2.80;;;;;;;17.66;45.63;102046.78;5107000;27;20039;-85
2022/05/27 11:19:14;;;;;;;9.80;3.00;;;;;;;17.89;46.32;102048.81;5106521;27;20235;-84
2022/05/27 11:21:52;;;;;;;13.40;3.30;;;;;;;17.54;50.65;102051.38;5107023;27;20081;-86
2022/05/27 11:24:26;;;;;;;11.10;3.23;;;;;;;16.98;48.39;102064.19;5107198;27;20077;-84
2022/05/27 11:27:23;;;;;;;13.05;3.60;;;;;;;17.01;51.14;102050.06;5087676;27;20053;-84
2022/05/27 11:29:54;;;;;;;9.80;2.70;;;;;;;17.16;50.05;102066.13;5107324;27;20127;-87
2022/05/27 11:32:35;;;;;;;12.43;2.90;;;;;;;17.11;48.71;102064.09;5092716;27;20042;-85
2022/05/27 11:35:13;;;;;;;10.90;2.93;;;;;;;17.45;47.01;102053.59;5093650;27;21606;-85
2022/05/27 11:37:59;;;;;;;8.97;2.63;;;;;;;17.37;47.44;102060.22;5092322;27;20036;-87
2022/05/27 11:40:40;;;;;;;9.33;2.77;;;;;;;17.55;46.56;102066.75;5092219;27;20042;-84
2022/05/27 11:43:26;;;;;;;11.33;2.90;;;;;;;17.73;46.30;102065.91;5093008;27;20132;-85
2022/05/27 11:46:05;;;;;;;12.50;2.87;;;;;;;17.60;46.40;102066.91;5093634;27;20049;-84
2022/05/27 11:48:39;;;;;;;8.53;2.80;;;;;;;17.68;45.33;102074.81;5092590;27;20288;-84
2022/05/27 11:51:30;;;;;;;13.73;3.28;;;;;;;17.70;45.97;102066.38;5093165;27;20039;-85
2022/05/27 11:54:06;;;;;;;9.77;2.93;;;;;;;17.65;47.17;102063.47;5074369;27;20107;-84
2022/05/27 11:56:32;;;;;;;12.10;3.00;;;;;;;17.74;46.82;102070.31;5091299;27;20063;-83
2022/05/27 11:59:07;;;;;;;8.77;2.63;;;;;;;17.81;45.29;102062.03;5075036;27;20616;-86
2022/05/27 12:01:41;;;;;;;11.43;2.72;;;;;;;17.76;42.34;102072.84;5092968;27;20091;-83
2022/05/27 12:04:26;;;;;;;;;;;;;;;18.00;42.87;102079.31;5074008;27;20092;-82
2022/05/27 12:07:08;;;;;;;10.40;2.70;;;;;;;17.71;43.84;102071.63;5091798;27;20020;-83
2022/05/27 12:09:45;;;;;;;11.67;3.07;;;;;;;17.54;44.81;102078.78;5093019;27;20038;-81
2022/05/27 12:12:18;;;;;;;11.67;2.63;;;;;;;17.44;44.62;102057.41;5091504;27;20031;-83
2022/05/27 12:14:52;;;;;;;8.60;2.57;;;;;;;17.54;45.02;102059.59;5081182;27;20425;-82
2022/05/27 12:17:21;;;;;;;7.53;2.30;;;;;;;17.54;42.05;102073.31;5090550;27;20427;-82
2022/05/27 12:19:59;;;;;;;9.60;2.63;;;;;;;17.44;44.93;102067.53;5092020;27;20074;-82
2022/05/27 12:22:30;;;;;;;10.03;2.50;;;;;;;17.42;44.11;102058.69;5091972;27;20039;-84
2022/05/27 12:25:00;;;;;;;8.43;2.60;;;;;;;17.29;45.42;102073.38;5076541;27;20042;-83
2022/05/27 12:27:27;;;;;;;9.40;2.50;;;;;;;17.31;44.10;102063.88;5091911;27;21346;-82
2022/05/27 12:29:54;;;;;;;10.90;2.97;;;;;;;17.23;44.33;102060.59;5110381;27;20027;-82
2022/05/27 12:32:24;;;;;;;10.63;3.00;;;;;;;17.12;46.67;102046.59;5095300;27;20031;-81
2022/05/27 12:35:13;;;;;;;9.23;3.23;;;;;;;17.18;45.53;102059.38;5092438;27;20652;-85
2022/05/27 12:37:48;;;;;;;8.73;2.83;;;;;;;17.06;46.47;102060.34;5090726;27;20032;-83
2022/05/27 12:40:29;;;;;;;8.30;2.83;;;;;;;16.80;45.73;102054.03;5073146;27;20494;-83
2022/05/27 12:42:58;;;;;;;10.13;3.27;;;;;;;16.63;49.24;102048.25;5072752;28;20028;-83
2022/05/27 12:45:46;;;;;;;10.80;3.20;;;;;;;16.68;50.14;102067.59;5076206;27;20387;-83
2022/05/27 12:48:29;;;;;;;15.23;3.17;;;;;;;16.30;50.87;102063.84;5072629;27;20036;-84
2022/05/27 12:50:57;;;;;;;13.75;3.45;;;;;;;16.45;52.10;102060.81;5092578;27;20359;-82